sensor_id;sensor_type;location;lat;lon;timestamp;P1;durP1;ratioP1;P2;durP2;ratioP2
61911;SDS011;49973;52.084;5.412;2024-03-23T00:54:35;7.10;;;3.27;;
61911;SDS011;49973;52.084;5.412;2024-03-23T00:57:02;9.00;;;4.17;;
61911;SDS011;49973;52.084;5.412;2024-03-23T00:59:30;12.33;;;3.03;;
61911;SDS011;49973;52.084;5.412;2024-03-23T01:01:56;12.67;;;3.40;;
61911;SDS011;49973;52.084;5.412;2024-03-23T01:04:24;6.63;;;2.93;;
61911;SDS011;49973;52.084;5.412;2024-03-23T01:06:51;9.10;;;2.80;;
61911;SDS011;49973;52.084;5.412;2024-03-23T01:09:18;18.47;;;3.90;;
61911;SDS011;49973;52.084;5.412;2024-03-23T01:11:46;9.77;;;3.33;;
61911;SDS011;49973;52.084;5.412;2024-03-23T01:14:14;6.60;;;3.70;;
61911;SDS011;49973;52.084;5.412;2024-03-23T01:16:41;12.30;;;4.20;;
61911;SDS011;49973;52.084;5.412;2024-03-23T01:19:08;4.63;;;2.83;;
61911;SDS011;49973;52.084;5.412;2024-03-23T01:21:35;7.40;;;3.23;;
61911;SDS011;49973;52.084;5.412;2024-03-23T01:24:02;4.50;;;2.77;;
61911;SDS011;49973;52.084;5.412;2024-03-23T01:26:29;23.23;;;3.83;;
61911;SDS011;49973;52.084;5.412;2024-03-23T01:28:59;7.00;;;4.03;;
61911;SDS011;49973;52.084;5.412;2024-03-23T01:31:25;4.40;;;3.40;;
61911;SDS011;49973;52.084;5.412;2024-03-23T01:33:53;4.13;;;3.03;;
61911;SDS011;49973;52.084;5.412;2024-03-23T01:36:20;8.60;;;3.03;;
61911;SDS011;49973;52.084;5.412;2024-03-23T01:38:47;6.33;;;3.60;;
61911;SDS011;49973;52.084;5.412;2024-03-23T01:41:14;8.73;;;2.47;;
61911;SDS011;49973;52.084;5.412;2024-03-23T01:43:41;12.17;;;3.23;;
61911;SDS011;49973;52.084;5.412;2024-03-23T01:46:09;8.63;;;3.43;;
61911;SDS011;49973;52.084;5.412;2024-03-23T01:48:37;11.43;;;3.17;;
61911;SDS011;49973;52.084;5.412;2024-03-23T01:51:04;10.60;;;3.10;;
61911;SDS011;49973;52.084;5.412;2024-03-23T01:53:32;13.53;;;3.43;;
61911;SDS011;49973;52.084;5.412;2024-03-23T01:55:59;7.67;;;2.63;;
61911;SDS011;49973;52.084;5.412;2024-03-23T01:58:27;9.93;;;3.67;;
61911;SDS011;49973;52.084;5.412;2024-03-23T02:00:53;14.87;;;3.10;;
61911;SDS011;49973;52.084;5.412;2024-03-23T02:03:25;5.10;;;3.43;;
61911;SDS011;49973;52.084;5.412;2024-03-23T02:05:53;4.97;;;2.73;;
61911;SDS011;49973;52.084;5.412;2024-03-23T02:08:21;18.27;;;3.70;;
61911;SDS011;49973;52.084;5.412;2024-03-23T02:10:49;7.03;;;3.30;;
61911;SDS011;49973;52.084;5.412;2024-03-23T02:13:17;6.43;;;2.70;;
61911;SDS011;49973;52.084;5.412;2024-03-23T02:15:45;5.83;;;3.60;;
61911;SDS011;49973;52.084;5.412;2024-03-23T02:18:12;10.87;;;3.60;;
61911;SDS011;49973;52.084;5.412;2024-03-23T02:20:41;5.83;;;2.70;;
61911;SDS011;49973;52.084;5.412;2024-03-23T02:23:14;9.43;;;4.07;;
61911;SDS011;49973;52.084;5.412;2024-03-23T02:25:41;2.87;;;2.40;;
61911;SDS011;49973;52.084;5.412;2024-03-23T02:28:08;4.23;;;2.87;;
61911;SDS011;49973;52.084;5.412;2024-03-23T02:30:36;2.90;;;2.57;;
61911;SDS011;49973;52.084;5.412;2024-03-23T02:33:04;4.03;;;3.17;;
61911;SDS011;49973;52.084;5.412;2024-03-23T02:35:32;2.67;;;2.13;;
61911;SDS011;49973;52.084;5.412;2024-03-23T02:37:59;5.97;;;2.97;;
61911;SDS011;49973;52.084;5.412;2024-03-23T02:40:28;6.17;;;3.17;;
61911;SDS011;49973;52.084;5.412;2024-03-23T02:42:55;10.57;;;3.20;;
61911;SDS011;49973;52.084;5.412;2024-03-23T02:45:23;5.67;;;3.60;;
61911;SDS011;49973;52.084;5.412;2024-03-23T02:47:50;3.93;;;2.53;;
61911;SDS011;49973;52.084;5.412;2024-03-23T02:50:18;13.43;;;2.93;;
61911;SDS011;49973;52.084;5.412;2024-03-23T02:52:45;5.40;;;3.33;;
61911;SDS011;49973;52.084;5.412;2024-03-23T02:55:12;2.70;;;2.43;;
61911;SDS011;49973;52.084;5.412;2024-03-23T02:57:41;5.67;;;2.77;;
61911;SDS011;49973;52.084;5.412;2024-03-23T03:00:08;6.50;;;3.03;;
61911;SDS011;49973;52.084;5.412;2024-03-23T03:02:36;6.17;;;2.97;;
61911;SDS011;49973;52.084;5.412;2024-03-23T03:05:03;5.13;;;2.90;;
61911;SDS011;49973;52.084;5.412;2024-03-23T03:07:31;3.80;;;2.93;;
61911;SDS011;49973;52.084;5.412;2024-03-23T03:09:58;9.37;;;3.20;;
61911;SDS011;49973;52.084;5.412;2024-03-23T03:12:26;7.83;;;2.37;;
61911;SDS011;49973;52.084;5.412;2024-03-23T03:14:54;6.30;;;3.53;;
61911;SDS011;49973;52.084;5.412;2024-03-23T03:17:22;4.13;;;2.77;;
61911;SDS011;49973;52.084;5.412;2024-03-23T03:19:49;2.37;;;2.17;;
61911;SDS011;49973;52.084;5.412;2024-03-23T03:22:21;10.77;;;3.40;;
61911;SDS011;49973;52.084;5.412;2024-03-23T03:24:48;13.77;;;2.47;;
61911;SDS011;49973;52.084;5.412;2024-03-23T03:27:15;3.83;;;2.03;;
61911;SDS011;49973;52.084;5.412;2024-03-23T03:29:42;2.87;;;1.87;;
61911;SDS011;49973;52.084;5.412;2024-03-23T03:32:11;9.17;;;3.80;;
61911;SDS011;49973;52.084;5.412;2024-03-23T03:34:37;13.10;;;2.07;;
61911;SDS011;49973;52.084;5.412;2024-03-23T03:37:05;4.40;;;3.20;;
61911;SDS011;49973;52.084;5.412;2024-03-23T03:39:31;8.90;;;3.37;;
61911;SDS011;49973;52.084;5.412;2024-03-23T03:41:59;2.37;;;1.57;;
61911;SDS011;49973;52.084;5.412;2024-03-23T03:44:27;15.00;;;3.50;;
61911;SDS011;49973;52.084;5.412;2024-03-23T03:46:55;4.17;;;2.33;;
61911;SDS011;49973;52.084;5.412;2024-03-23T03:49:23;8.80;;;2.63;;
61911;SDS011;49973;52.084;5.412;2024-03-23T03:51:51;2.57;;;1.97;;
61911;SDS011;49973;52.084;5.412;2024-03-23T03:54:17;1.87;;;1.77;;
61911;SDS011;49973;52.084;5.412;2024-03-23T03:56:45;17.87;;;2.50;;
61911;SDS011;49973;52.084;5.412;2024-03-23T03:59:11;7.40;;;2.83;;
61911;SDS011;49973;52.084;5.412;2024-03-23T04:01:40;2.33;;;2.13;;
61911;SDS011;49973;52.084;5.412;2024-03-23T04:04:07;3.70;;;2.60;;
61911;SDS011;49973;52.084;5.412;2024-03-23T04:06:36;3.03;;;1.80;;
61911;SDS011;49973;52.084;5.412;2024-03-23T04:09:02;9.77;;;2.10;;
61911;SDS011;49973;52.084;5.412;2024-03-23T04:11:30;4.20;;;2.37;;
61911;SDS011;49973;52.084;5.412;2024-03-23T04:13:56;5.03;;;2.40;;
61911;SDS011;49973;52.084;5.412;2024-03-23T04:16:24;1.87;;;1.70;;
61911;SDS011;49973;52.084;5.412;2024-03-23T04:18:52;2.70;;;1.47;;
61911;SDS011;49973;52.084;5.412;2024-03-23T04:21:21;2.23;;;1.77;;
61911;SDS011;49973;52.084;5.412;2024-03-23T04:23:51;9.97;;;2.60;;
61911;SDS011;49973;52.084;5.412;2024-03-23T04:26:19;4.37;;;2.20;;
61911;SDS011;49973;52.084;5.412;2024-03-23T04:28:46;4.20;;;1.23;;
61911;SDS011;49973;52.084;5.412;2024-03-23T04:31:13;10.00;;;2.10;;
61911;SDS011;49973;52.084;5.412;2024-03-23T04:33:40;1.37;;;1.10;;
61911;SDS011;49973;52.084;5.412;2024-03-23T04:36:07;10.83;;;2.00;;
61911;SDS011;49973;52.084;5.412;2024-03-23T04:38:35;1.63;;;1.00;;
61911;SDS011;49973;52.084;5.412;2024-03-23T04:41:04;1.63;;;1.27;;
61911;SDS011;49973;52.084;5.412;2024-03-23T04:43:32;3.93;;;2.03;;
61911;SDS011;49973;52.084;5.412;2024-03-23T04:46:00;4.60;;;2.40;;
61911;SDS011;49973;52.084;5.412;2024-03-23T04:48:27;3.93;;;1.33;;
61911;SDS011;49973;52.084;5.412;2024-03-23T04:50:55;13.30;;;1.40;;
61911;SDS011;49973;52.084;5.412;2024-03-23T04:53:23;0.70;;;0.70;;
61911;SDS011;49973;52.084;5.412;2024-03-23T04:55:54;2.43;;;1.50;;
61911;SDS011;49973;52.084;5.412;2024-03-23T04:58:22;4.23;;;1.07;;
61911;SDS011;49973;52.084;5.412;2024-03-23T05:00:53;1.03;;;0.73;;
61911;SDS011;49973;52.084;5.412;2024-03-23T05:03:20;7.53;;;1.03;;
61911;SDS011;49973;52.084;5.412;2024-03-23T05:05:48;9.23;;;2.07;;
61911;SDS011;49973;52.084;5.412;2024-03-23T05:08:15;3.27;;;1.00;;
61911;SDS011;49973;52.084;5.412;2024-03-23T05:10:43;3.43;;;1.70;;
61911;SDS011;49973;52.084;5.412;2024-03-23T05:13:09;3.63;;;1.73;;
61911;SDS011;49973;52.084;5.412;2024-03-23T05:15:39;1.80;;;0.93;;
61911;SDS011;49973;52.084;5.412;2024-03-23T05:18:06;3.73;;;1.70;;
61911;SDS011;49973;52.084;5.412;2024-03-23T05:20:33;4.80;;;2.60;;
61911;SDS011;49973;52.084;5.412;2024-03-23T05:23:00;5.43;;;2.53;;
61911;SDS011;49973;52.084;5.412;2024-03-23T05:25:27;5.40;;;1.23;;
61911;SDS011;49973;52.084;5.412;2024-03-23T05:27:54;3.00;;;1.80;;
61911;SDS011;49973;52.084;5.412;2024-03-23T05:30:22;1.90;;;1.00;;
61911;SDS011;49973;52.084;5.412;2024-03-23T05:32:50;0.80;;;0.80;;
61911;SDS011;49973;52.084;5.412;2024-03-23T05:35:18;12.83;;;1.53;;
61911;SDS011;49973;52.084;5.412;2024-03-23T05:37:45;1.57;;;1.40;;
61911;SDS011;49973;52.084;5.412;2024-03-23T05:40:13;0.90;;;0.83;;
61911;SDS011;49973;52.084;5.412;2024-03-23T05:42:41;2.10;;;1.03;;
61911;SDS011;49973;52.084;5.412;2024-03-23T05:45:08;2.53;;;1.30;;
61911;SDS011;49973;52.084;5.412;2024-03-23T05:47:35;7.87;;;1.57;;
61911;SDS011;49973;52.084;5.412;2024-03-23T05:50:04;1.70;;;1.50;;
61911;SDS011;49973;52.084;5.412;2024-03-23T05:52:32;5.00;;;2.10;;
61911;SDS011;49973;52.084;5.412;2024-03-23T05:54:59;6.63;;;1.20;;
61911;SDS011;49973;52.084;5.412;2024-03-23T05:57:26;6.80;;;1.00;;
61911;SDS011;49973;52.084;5.412;2024-03-23T05:59:54;0.80;;;0.67;;
61911;SDS011;49973;52.084;5.412;2024-03-23T06:02:20;2.57;;;1.10;;
61911;SDS011;49973;52.084;5.412;2024-03-23T06:04:48;5.93;;;0.83;;
61911;SDS011;49973;52.084;5.412;2024-03-23T06:07:17;3.70;;;0.60;;
61911;SDS011;49973;52.084;5.412;2024-03-23T06:09:44;1.13;;;0.70;;
61911;SDS011;49973;52.084;5.412;2024-03-23T06:12:11;4.03;;;1.13;;
61911;SDS011;49973;52.084;5.412;2024-03-23T06:14:38;0.70;;;0.70;;
61911;SDS011;49973;52.084;5.412;2024-03-23T06:17:05;3.80;;;1.20;;
61911;SDS011;49973;52.084;5.412;2024-03-23T06:19:33;2.27;;;0.80;;
61911;SDS011;49973;52.084;5.412;2024-03-23T06:21:59;0.77;;;0.47;;
61911;SDS011;49973;52.084;5.412;2024-03-23T06:24:28;1.80;;;0.77;;
61911;SDS011;49973;52.084;5.412;2024-03-23T06:26:55;0.60;;;0.60;;
61911;SDS011;49973;52.084;5.412;2024-03-23T06:29:22;4.20;;;0.70;;
61911;SDS011;49973;52.084;5.412;2024-03-23T06:31:53;2.43;;;0.30;;
61911;SDS011;49973;52.084;5.412;2024-03-23T06:34:21;1.67;;;1.57;;
61911;SDS011;49973;52.084;5.412;2024-03-23T06:36:48;5.73;;;0.70;;
61911;SDS011;49973;52.084;5.412;2024-03-23T06:39:16;0.70;;;0.50;;
61911;SDS011;49973;52.084;5.412;2024-03-23T06:41:45;5.47;;;1.23;;
61911;SDS011;49973;52.084;5.412;2024-03-23T06:44:19;1.17;;;0.60;;
61911;SDS011;49973;52.084;5.412;2024-03-23T06:46:46;2.23;;;0.90;;
61911;SDS011;49973;52.084;5.412;2024-03-23T06:49:14;1.07;;;0.50;;
61911;SDS011;49973;52.084;5.412;2024-03-23T06:51:41;5.77;;;0.53;;
61911;SDS011;49973;52.084;5.412;2024-03-23T06:54:09;0.90;;;0.90;;
61911;SDS011;49973;52.084;5.412;2024-03-23T06:56:35;3.73;;;1.10;;
61911;SDS011;49973;52.084;5.412;2024-03-23T06:59:04;1.63;;;0.80;;
61911;SDS011;49973;52.084;5.412;2024-03-23T07:01:31;2.33;;;0.87;;
61911;SDS011;49973;52.084;5.412;2024-03-23T07:03:58;5.13;;;1.87;;
61911;SDS011;49973;52.084;5.412;2024-03-23T07:06:25;6.50;;;1.17;;
61911;SDS011;49973;52.084;5.412;2024-03-23T07:08:53;0.80;;;0.53;;
61911;SDS011;49973;52.084;5.412;2024-03-23T07:11:19;3.67;;;0.93;;
61911;SDS011;49973;52.084;5.412;2024-03-23T07:13:49;4.47;;;1.20;;
61911;SDS011;49973;52.084;5.412;2024-03-23T07:16:17;1.30;;;0.80;;
61911;SDS011;49973;52.084;5.412;2024-03-23T07:18:45;2.47;;;0.97;;
61911;SDS011;49973;52.084;5.412;2024-03-23T07:21:12;5.57;;;0.90;;
61911;SDS011;49973;52.084;5.412;2024-03-23T07:23:41;1.30;;;0.80;;
61911;SDS011;49973;52.084;5.412;2024-03-23T07:26:10;3.77;;;1.17;;
61911;SDS011;49973;52.084;5.412;2024-03-23T07:28:38;3.47;;;0.87;;
61911;SDS011;49973;52.084;5.412;2024-03-23T07:31:09;4.83;;;0.93;;
61911;SDS011;49973;52.084;5.412;2024-03-23T07:33:42;4.87;;;1.27;;
61911;SDS011;49973;52.084;5.412;2024-03-23T07:36:10;2.47;;;1.13;;
61911;SDS011;49973;52.084;5.412;2024-03-23T07:38:39;2.10;;;0.80;;
61911;SDS011;49973;52.084;5.412;2024-03-23T07:41:07;1.73;;;1.33;;
61911;SDS011;49973;52.084;5.412;2024-03-23T07:43:36;1.80;;;1.17;;
61911;SDS011;49973;52.084;5.412;2024-03-23T07:46:04;3.87;;;1.20;;
61911;SDS011;49973;52.084;5.412;2024-03-23T07:48:32;6.23;;;1.40;;
61911;SDS011;49973;52.084;5.412;2024-03-23T07:51:01;1.73;;;1.27;;
61911;SDS011;49973;52.084;5.412;2024-03-23T07:53:30;3.90;;;1.13;;
61911;SDS011;49973;52.084;5.412;2024-03-23T07:55:58;4.00;;;1.10;;
61911;SDS011;49973;52.084;5.412;2024-03-23T07:58:27;4.33;;;0.97;;
61911;SDS011;49973;52.084;5.412;2024-03-23T08:00:54;4.77;;;0.83;;
61911;SDS011;49973;52.084;5.412;2024-03-23T08:03:22;12.83;;;1.77;;
61911;SDS011;49973;52.084;5.412;2024-03-23T08:05:48;2.10;;;1.03;;
61911;SDS011;49973;52.084;5.412;2024-03-23T08:08:17;0.70;;;0.70;;
61911;SDS011;49973;52.084;5.412;2024-03-23T08:10:48;0.87;;;0.60;;
61911;SDS011;49973;52.084;5.412;2024-03-23T08:13:16;4.50;;;1.00;;
61911;SDS011;49973;52.084;5.412;2024-03-23T08:15:42;1.13;;;0.83;;
61911;SDS011;49973;52.084;5.412;2024-03-23T08:18:10;2.47;;;1.23;;
61911;SDS011;49973;52.084;5.412;2024-03-23T08:20:37;5.77;;;1.40;;
61911;SDS011;49973;52.084;5.412;2024-03-23T08:23:05;2.67;;;0.77;;
61911;SDS011;49973;52.084;5.412;2024-03-23T08:25:33;2.73;;;0.60;;
61911;SDS011;49973;52.084;5.412;2024-03-23T08:28:02;3.43;;;1.03;;
61911;SDS011;49973;52.084;5.412;2024-03-23T08:30:29;7.80;;;1.63;;
61911;SDS011;49973;52.084;5.412;2024-03-23T08:32:57;1.10;;;0.80;;
61911;SDS011;49973;52.084;5.412;2024-03-23T08:35:24;4.17;;;2.70;;
61911;SDS011;49973;52.084;5.412;2024-03-23T08:37:51;12.80;;;5.90;;
61911;SDS011;49973;52.084;5.412;2024-03-23T08:40:18;7.23;;;3.73;;
61911;SDS011;49973;52.084;5.412;2024-03-23T08:42:47;12.20;;;4.67;;
61911;SDS011;49973;52.084;5.412;2024-03-23T08:45:14;5.03;;;2.00;;
61911;SDS011;49973;52.084;5.412;2024-03-23T08:47:41;4.67;;;2.20;;
61911;SDS011;49973;52.084;5.412;2024-03-23T08:50:08;6.30;;;1.53;;
61911;SDS011;49973;52.084;5.412;2024-03-23T08:52:36;3.13;;;1.23;;
61911;SDS011;49973;52.084;5.412;2024-03-23T08:55:03;1.57;;;1.10;;
61911;SDS011;49973;52.084;5.412;2024-03-23T08:57:31;6.30;;;1.60;;
61911;SDS011;49973;52.084;5.412;2024-03-23T08:59:59;1.37;;;0.93;;
61911;SDS011;49973;52.084;5.412;2024-03-23T09:02:27;2.13;;;1.10;;
61911;SDS011;49973;52.084;5.412;2024-03-23T09:04:54;4.33;;;1.13;;
61911;SDS011;49973;52.084;5.412;2024-03-23T09:07:21;1.67;;;0.80;;
61911;SDS011;49973;52.084;5.412;2024-03-23T09:09:48;1.43;;;0.57;;
61911;SDS011;49973;52.084;5.412;2024-03-23T09:12:15;1.80;;;1.00;;
61911;SDS011;49973;52.084;5.412;2024-03-23T09:14:42;4.93;;;0.80;;
61911;SDS011;49973;52.084;5.412;2024-03-23T09:17:11;2.77;;;0.80;;
61911;SDS011;49973;52.084;5.412;2024-03-23T09:19:38;0.93;;;0.80;;
61911;SDS011;49973;52.084;5.412;2024-03-23T09:22:06;2.20;;;0.70;;
61911;SDS011;49973;52.084;5.412;2024-03-23T09:24:33;3.30;;;1.47;;
61911;SDS011;49973;52.084;5.412;2024-03-23T09:27:00;6.13;;;1.17;;
61911;SDS011;49973;52.084;5.412;2024-03-23T09:29:27;0.30;;;0.30;;
61911;SDS011;49973;52.084;5.412;2024-03-23T09:31:55;1.27;;;0.63;;
61911;SDS011;49973;52.084;5.412;2024-03-23T09:34:23;1.50;;;0.50;;
61911;SDS011;49973;52.084;5.412;2024-03-23T09:36:51;1.83;;;0.93;;
61911;SDS011;49973;52.084;5.412;2024-03-23T09:39:17;1.07;;;0.60;;
61911;SDS011;49973;52.084;5.412;2024-03-23T09:41:45;4.17;;;0.60;;
61911;SDS011;49973;52.084;5.412;2024-03-23T09:44:12;2.47;;;0.70;;
61911;SDS011;49973;52.084;5.412;2024-03-23T09:46:40;3.17;;;0.90;;
61911;SDS011;49973;52.084;5.412;2024-03-23T09:49:06;0.50;;;0.50;;
61911;SDS011;49973;52.084;5.412;2024-03-23T09:51:36;1.80;;;0.70;;
61911;SDS011;49973;52.084;5.412;2024-03-23T09:54:03;1.87;;;0.77;;
61911;SDS011;49973;52.084;5.412;2024-03-23T09:56:31;2.97;;;1.13;;
61911;SDS011;49973;52.084;5.412;2024-03-23T09:59:01;1.67;;;1.00;;
61911;SDS011;49973;52.084;5.412;2024-03-23T10:01:29;2.40;;;0.57;;
61911;SDS011;49973;52.084;5.412;2024-03-23T10:03:56;1.47;;;0.57;;
61911;SDS011;49973;52.084;5.412;2024-03-23T10:06:24;0.80;;;0.60;;
61911;SDS011;49973;52.084;5.412;2024-03-23T10:08:52;3.90;;;2.53;;
61911;SDS011;49973;52.084;5.412;2024-03-23T10:11:21;6.83;;;4.20;;
61911;SDS011;49973;52.084;5.412;2024-03-23T10:13:47;4.77;;;2.23;;
61911;SDS011;49973;52.084;5.412;2024-03-23T10:16:22;4.73;;;2.40;;
61911;SDS011;49973;52.084;5.412;2024-03-23T10:18:50;6.30;;;1.43;;
61911;SDS011;49973;52.084;5.412;2024-03-23T10:21:18;3.17;;;1.03;;
61911;SDS011;49973;52.084;5.412;2024-03-23T10:23:44;4.80;;;0.97;;
61911;SDS011;49973;52.084;5.412;2024-03-23T10:26:17;4.27;;;0.90;;
61911;SDS011;49973;52.084;5.412;2024-03-23T10:28:51;0.60;;;0.60;;
61911;SDS011;49973;52.084;5.412;2024-03-23T10:31:18;5.10;;;1.17;;
61911;SDS011;49973;52.084;5.412;2024-03-23T10:33:47;1.80;;;1.20;;
61911;SDS011;49973;52.084;5.412;2024-03-23T10:36:14;3.83;;;1.33;;
61911;SDS011;49973;52.084;5.412;2024-03-23T10:38:42;4.93;;;1.30;;
61911;SDS011;49973;52.084;5.412;2024-03-23T10:41:10;9.13;;;1.37;;
61911;SDS011;49973;52.084;5.412;2024-03-23T10:43:39;6.10;;;0.77;;
61911;SDS011;49973;52.084;5.412;2024-03-23T10:46:06;3.47;;;0.93;;
61911;SDS011;49973;52.084;5.412;2024-03-23T10:48:34;0.30;;;0.30;;
61911;SDS011;49973;52.084;5.412;2024-03-23T10:51:01;2.33;;;0.70;;
61911;SDS011;49973;52.084;5.412;2024-03-23T10:53:30;3.93;;;1.23;;
61911;SDS011;49973;52.084;5.412;2024-03-23T10:55:59;3.50;;;1.30;;
61911;SDS011;49973;52.084;5.412;2024-03-23T10:58:28;0.53;;;0.53;;
61911;SDS011;49973;52.084;5.412;2024-03-23T11:00:59;3.13;;;1.60;;
61911;SDS011;49973;52.084;5.412;2024-03-23T11:03:30;3.40;;;1.70;;
61911;SDS011;49973;52.084;5.412;2024-03-23T11:05:58;2.37;;;1.57;;
61911;SDS011;49973;52.084;5.412;2024-03-23T11:08:36;8.53;;;3.23;;
61911;SDS011;49973;52.084;5.412;2024-03-23T11:13:58;1.03;;;0.73;;
61911;SDS011;49973;52.084;5.412;2024-03-23T11:16:27;4.97;;;1.03;;
61911;SDS011;49973;52.084;5.412;2024-03-23T11:21:57;0.23;;;0.23;;
61911;SDS011;49973;52.084;5.412;2024-03-23T11:24:24;0.57;;;0.57;;
61911;SDS011;49973;52.084;5.412;2024-03-23T11:26:51;2.73;;;1.00;;
61911;SDS011;49973;52.084;5.412;2024-03-23T11:29:19;4.20;;;0.60;;
61911;SDS011;49973;52.084;5.412;2024-03-23T11:31:47;2.30;;;0.80;;
61911;SDS011;49973;52.084;5.412;2024-03-23T11:34:15;7.33;;;1.13;;
61911;SDS011;49973;52.084;5.412;2024-03-23T11:36:42;1.97;;;0.90;;
61911;SDS011;49973;52.084;5.412;2024-03-23T11:39:13;0.67;;;0.67;;
61911;SDS011;49973;52.084;5.412;2024-03-23T11:41:45;1.53;;;0.90;;
61911;SDS011;49973;52.084;5.412;2024-03-23T11:44:14;2.73;;;1.13;;
61911;SDS011;49973;52.084;5.412;2024-03-23T11:46:42;1.23;;;0.50;;
61911;SDS011;49973;52.084;5.412;2024-03-23T11:49:20;1.87;;;0.93;;
61911;SDS011;49973;52.084;5.412;2024-03-23T11:51:48;0.40;;;0.40;;
61911;SDS011;49973;52.084;5.412;2024-03-23T11:54:16;6.47;;;0.73;;
61911;SDS011;49973;52.084;5.412;2024-03-23T11:56:55;6.40;;;1.70;;
61911;SDS011;49973;52.084;5.412;2024-03-23T11:59:31;7.30;;;1.60;;
61911;SDS011;49973;52.084;5.412;2024-03-23T12:01:58;1.50;;;0.90;;
61911;SDS011;49973;52.084;5.412;2024-03-23T12:04:28;2.93;;;1.43;;
61911;SDS011;49973;52.084;5.412;2024-03-23T12:07:09;6.43;;;0.77;;
61911;SDS011;49973;52.084;5.412;2024-03-23T12:09:37;9.47;;;1.10;;
61911;SDS011;49973;52.084;5.412;2024-03-23T12:12:11;3.57;;;1.03;;
61911;SDS011;49973;52.084;5.412;2024-03-23T12:14:42;3.50;;;1.17;;
61911;SDS011;49973;52.084;5.412;2024-03-23T12:17:12;1.67;;;1.00;;
61911;SDS011;49973;52.084;5.412;2024-03-23T12:19:42;4.67;;;0.87;;
61911;SDS011;49973;52.084;5.412;2024-03-23T12:22:10;2.45;;;0.77;;
61911;SDS011;49973;52.084;5.412;2024-03-23T12:24:38;4.22;;;1.00;;
61911;SDS011;49973;52.084;5.412;2024-03-23T12:27:10;3.87;;;1.40;;
61911;SDS011;49973;52.084;5.412;2024-03-23T12:29:38;1.97;;;0.60;;
61911;SDS011;49973;52.084;5.412;2024-03-23T12:32:05;11.53;;;1.67;;
61911;SDS011;49973;52.084;5.412;2024-03-23T12:34:33;2.50;;;0.80;;
61911;SDS011;49973;52.084;5.412;2024-03-23T12:37:01;1.80;;;1.43;;
61911;SDS011;49973;52.084;5.412;2024-03-23T12:39:29;4.00;;;1.23;;
61911;SDS011;49973;52.084;5.412;2024-03-23T12:41:55;3.60;;;1.40;;
61911;SDS011;49973;52.084;5.412;2024-03-23T12:44:23;6.70;;;1.30;;
61911;SDS011;49973;52.084;5.412;2024-03-23T12:46:49;1.27;;;0.83;;
61911;SDS011;49973;52.084;5.412;2024-03-23T12:49:17;3.03;;;0.83;;
61911;SDS011;49973;52.084;5.412;2024-03-23T12:51:46;2.20;;;0.67;;
61911;SDS011;49973;52.084;5.412;2024-03-23T12:54:21;0.50;;;0.40;;
61911;SDS011;49973;52.084;5.412;2024-03-23T12:56:50;3.10;;;1.63;;
61911;SDS011;49973;52.084;5.412;2024-03-23T12:59:17;1.60;;;0.70;;
61911;SDS011;49973;52.084;5.412;2024-03-23T13:01:45;3.73;;;0.60;;
61911;SDS011;49973;52.084;5.412;2024-03-23T13:04:12;4.07;;;0.80;;
61911;SDS011;49973;52.084;5.412;2024-03-23T13:06:40;1.23;;;0.97;;
61911;SDS011;49973;52.084;5.412;2024-03-23T13:09:06;2.63;;;0.80;;
61911;SDS011;49973;52.084;5.412;2024-03-23T13:11:36;2.00;;;0.83;;
61911;SDS011;49973;52.084;5.412;2024-03-23T13:14:02;5.90;;;1.03;;
61911;SDS011;49973;52.084;5.412;2024-03-23T13:16:31;4.80;;;0.90;;
61911;SDS011;49973;52.084;5.412;2024-03-23T13:18:58;5.30;;;0.70;;
61911;SDS011;49973;52.084;5.412;2024-03-23T13:21:26;6.77;;;0.93;;
61911;SDS011;49973;52.084;5.412;2024-03-23T13:23:53;2.37;;;0.77;;
61911;SDS011;49973;52.084;5.412;2024-03-23T13:26:21;0.50;;;0.47;;
61911;SDS011;49973;52.084;5.412;2024-03-23T13:28:49;1.10;;;0.67;;
61911;SDS011;49973;52.084;5.412;2024-03-23T13:31:16;1.00;;;0.80;;
61911;SDS011;49973;52.084;5.412;2024-03-23T13:33:43;2.33;;;0.40;;
61911;SDS011;49973;52.084;5.412;2024-03-23T13:36:11;1.43;;;0.50;;
61911;SDS011;49973;52.084;5.412;2024-03-23T13:38:38;0.30;;;0.30;;
61911;SDS011;49973;52.084;5.412;2024-03-23T13:41:05;1.80;;;0.53;;
61911;SDS011;49973;52.084;5.412;2024-03-23T13:43:33;0.50;;;0.47;;
61911;SDS011;49973;52.084;5.412;2024-03-23T13:46:02;0.40;;;0.40;;
61911;SDS011;49973;52.084;5.412;2024-03-23T13:48:29;0.40;;;0.40;;
61911;SDS011;49973;52.084;5.412;2024-03-23T13:50:57;1.33;;;0.53;;
61911;SDS011;49973;52.084;5.412;2024-03-23T13:53:23;0.23;;;0.23;;
61911;SDS011;49973;52.084;5.412;2024-03-23T13:55:51;0.73;;;0.73;;
61911;SDS011;49973;52.084;5.412;2024-03-23T13:58:18;2.43;;;0.53;;
61911;SDS011;49973;52.084;5.412;2024-03-23T14:00:46;0.30;;;0.30;;
61911;SDS011;49973;52.084;5.412;2024-03-23T14:03:14;2.93;;;0.33;;
61911;SDS011;49973;52.084;5.412;2024-03-23T14:05:42;0.40;;;0.30;;
61911;SDS011;49973;52.084;5.412;2024-03-23T14:08:09;0.20;;;0.20;;
61911;SDS011;49973;52.084;5.412;2024-03-23T14:10:40;0.37;;;0.37;;
61911;SDS011;49973;52.084;5.412;2024-03-23T14:13:08;0.63;;;0.63;;
61911;SDS011;49973;52.084;5.412;2024-03-23T14:15:35;1.80;;;0.40;;
61911;SDS011;49973;52.084;5.412;2024-03-23T14:18:02;1.23;;;0.33;;
61911;SDS011;49973;52.084;5.412;2024-03-23T14:20:32;2.57;;;0.70;;
61911;SDS011;49973;52.084;5.412;2024-03-23T14:22:59;2.13;;;0.60;;
61911;SDS011;49973;52.084;5.412;2024-03-23T14:25:27;3.30;;;0.67;;
61911;SDS011;49973;52.084;5.412;2024-03-23T14:27:55;5.50;;;0.60;;
61911;SDS011;49973;52.084;5.412;2024-03-23T14:30:24;3.13;;;1.03;;
61911;SDS011;49973;52.084;5.412;2024-03-23T14:32:50;4.07;;;2.17;;
61911;SDS011;49973;52.084;5.412;2024-03-23T14:35:18;7.37;;;1.43;;
61911;SDS011;49973;52.084;5.412;2024-03-23T14:37:46;3.13;;;1.00;;
61911;SDS011;49973;52.084;5.412;2024-03-23T14:40:14;1.07;;;0.67;;
61911;SDS011;49973;52.084;5.412;2024-03-23T14:42:40;0.90;;;0.60;;
61911;SDS011;49973;52.084;5.412;2024-03-23T14:45:08;1.57;;;0.60;;
61911;SDS011;49973;52.084;5.412;2024-03-23T14:47:35;3.40;;;0.50;;
61911;SDS011;49973;52.084;5.412;2024-03-23T14:50:02;6.50;;;0.80;;
61911;SDS011;49973;52.084;5.412;2024-03-23T14:52:29;0.67;;;0.20;;
61911;SDS011;49973;52.084;5.412;2024-03-23T14:54:58;0.63;;;0.33;;
61911;SDS011;49973;52.084;5.412;2024-03-23T14:57:25;3.43;;;0.40;;
61911;SDS011;49973;52.084;5.412;2024-03-23T14:59:55;6.40;;;1.13;;
61911;SDS011;49973;52.084;5.412;2024-03-23T15:02:22;0.50;;;0.37;;
61911;SDS011;49973;52.084;5.412;2024-03-23T15:04:49;0.53;;;0.50;;
61911;SDS011;49973;52.084;5.412;2024-03-23T15:07:16;5.00;;;0.80;;
61911;SDS011;49973;52.084;5.412;2024-03-23T15:09:44;6.93;;;0.73;;
61911;SDS011;49973;52.084;5.412;2024-03-23T15:12:11;5.10;;;2.53;;
61911;SDS011;49973;52.084;5.412;2024-03-23T15:14:39;0.50;;;0.30;;
61911;SDS011;49973;52.084;5.412;2024-03-23T15:17:06;0.70;;;0.53;;
61911;SDS011;49973;52.084;5.412;2024-03-23T15:19:35;2.47;;;1.03;;
61911;SDS011;49973;52.084;5.412;2024-03-23T15:22:01;2.47;;;0.70;;
61911;SDS011;49973;52.084;5.412;2024-03-23T15:24:29;2.50;;;0.87;;
61911;SDS011;49973;52.084;5.412;2024-03-23T15:26:56;1.00;;;0.87;;
61911;SDS011;49973;52.084;5.412;2024-03-23T15:29:25;2.17;;;0.73;;
61911;SDS011;49973;52.084;5.412;2024-03-23T15:31:52;2.07;;;1.07;;
61911;SDS011;49973;52.084;5.412;2024-03-23T15:34:20;4.60;;;0.80;;
61911;SDS011;49973;52.084;5.412;2024-03-23T15:36:47;0.40;;;0.40;;
61911;SDS011;49973;52.084;5.412;2024-03-23T15:39:16;0.47;;;0.30;;
61911;SDS011;49973;52.084;5.412;2024-03-23T15:41:46;3.10;;;0.63;;
61911;SDS011;49973;52.084;5.412;2024-03-23T15:44:13;0.63;;;0.63;;
61911;SDS011;49973;52.084;5.412;2024-03-23T15:46:42;0.40;;;0.40;;
61911;SDS011;49973;52.084;5.412;2024-03-23T15:49:09;0.63;;;0.63;;